Time;durP1;ratioP1;P1;durP2;ratioP2;P2;SDS_P1;SDS_P2;PMS_P1;PMS_P2;Temp;Humidity;BMP_temperature;BMP_pressure;BME280_temperature;BME280_humidity;BME280_pressure;Samples;Min_cycle;Max_cycle;Signal;HPM_P1;HPM_P2
2023/04/25 00:00:18;;;;;;;10.00;4.93;;;;;;;5.64;100.00;100949.88;4955713;28;20035;-65
2023/04/25 00:02:43;;;;;;;10.77;4.82;;;;;;;5.66;100.00;100953.44;4954402;28;20035;-65
2023/04/25 00:05:08;;;;;;;13.32;5.15;;;;;;;5.66;100.00;100963.72;4961172;28;20035;-65
2023/04/25 00:07:34;;;;;;;11.40;4.50;;;;;;;5.65;100.00;100960.25;4972405;28;20479;-65
2023/04/25 00:10:00;;;;;;;13.63;4.35;;;;;;;5.64;100.00;100965.31;4983696;28;20038;-65
2023/04/25 00:12:28;;;;;;;9.23;3.58;;;;;;;5.63;100.00;100964.41;4958520;28;20035;-65
2023/04/25 00:14:56;;;;;;;10.05;3.70;;;;;;;5.61;100.00;100965.16;4960714;28;20113;-64
2023/04/25 00:17:22;;;;;;;9.40;3.85;;;;;;;5.59;100.00;100967.66;4986008;28;20061;-65
2023/04/25 00:19:47;;;;;;;6.82;3.60;;;;;;;5.56;100.00;100967.44;4991013;28;20034;-65
2023/04/25 00:22:13;;;;;;;10.95;3.70;;;;;;;5.51;100.00;100967.22;4964251;28;20031;-64
2023/04/25 00:24:38;;;;;;;12.75;4.63;;;;;;;5.48;100.00;100974.75;4991259;28;20101;-64
2023/04/25 00:27:03;;;;;;;11.23;3.50;;;;;;;5.44;100.00;100977.97;4984751;28;20042;-65
2023/04/25 00:29:29;;;;;;;12.43;4.00;;;;;;;5.41;100.00;100975.22;4984231;28;20041;-65
2023/04/25 00:31:54;;;;;;;14.38;3.70;;;;;;;5.38;100.00;100972.47;4990212;28;20026;-64
2023/04/25 00:34:20;;;;;;;11.02;3.63;;;;;;;5.35;100.00;100975.75;4989717;28;20031;-64
2023/04/25 00:36:45;;;;;;;8.75;3.47;;;;;;;5.34;100.00;100980.81;4977083;28;20054;-64
2023/04/25 00:39:11;;;;;;;9.63;3.78;;;;;;;5.31;100.00;100965.25;4989486;28;20073;-65
2023/04/25 00:41:36;;;;;;;8.02;3.35;;;;;;;5.29;100.00;100968.59;4989791;28;20062;-64
2023/04/25 00:44:04;;;;;;;14.75;4.07;;;;;;;5.25;100.00;100971.78;4988579;28;20057;-65
2023/04/25 00:46:31;;;;;;;8.73;3.55;;;;;;;5.18;100.00;100966.22;4989641;28;20040;-65
2023/04/25 00:48:56;;;;;;;7.50;3.78;;;;;;;5.14;100.00;100965.19;4989943;28;20490;-65
2023/04/25 00:51:21;;;;;;;9.55;4.10;;;;;;;5.08;100.00;100962.25;4990686;28;20030;-64
2023/04/25 00:53:49;;;;;;;10.60;3.40;;;;;;;5.01;100.00;100967.06;4989619;28;20597;-65
2023/04/25 00:56:15;;;;;;;9.57;3.10;;;;;;;4.97;100.00;100959.97;4990391;28;20037;-64
2023/04/25 00:58:42;;;;;;;10.23;3.37;;;;;;;4.95;100.00;100964.13;4976539;28;20042;-65
2023/04/25 01:01:07;;;;;;;8.20;3.60;;;;;;;4.93;100.00;100969.16;4974736;28;20111;-65
2023/04/25 01:03:35;;;;;;;13.00;3.97;;;;;;;4.95;100.00;100971.81;4953041;28;20035;-64
2023/04/25 01:06:02;;;;;;;10.60;3.70;;;;;;;4.92;100.00;100969.09;4966895;28;20383;-64
2023/04/25 01:08:27;;;;;;;10.30;4.25;;;;;;;4.92;100.00;100976.78;4990213;28;20483;-65
2023/04/25 01:10:53;;;;;;;12.07;4.50;;;;;;;4.89;100.00;100967.22;4989682;28;20026;-64
2023/04/25 01:13:18;;;;;;;9.47;3.63;;;;;;;4.87;100.00;100968.84;4989415;28;20033;-64
2023/04/25 01:15:44;;;;;;;11.43;4.40;;;;;;;4.82;100.00;100971.94;4979364;28;20047;-64
2023/04/25 01:18:09;;;;;;;11.67;4.97;;;;;;;4.77;100.00;100964.84;4989861;28;20033;-65
2023/04/25 01:20:36;;;;;;;12.20;4.70;;;;;;;4.75;100.00;100969.00;4989084;28;20038;-65
2023/04/25 01:23:02;;;;;;;13.33;5.23;;;;;;;4.75;100.00;100969.00;4989269;28;20514;-65
2023/04/25 01:25:29;;;;;;;7.47;4.80;;;;;;;4.73;100.00;100970.59;4989656;28;20058;-64
2023/04/25 01:27:54;;;;;;;18.15;6.10;;;;;;;4.73;100.00;100975.72;4964748;28;20035;-65
2023/04/25 01:30:20;;;;;;;11.23;4.88;;;;;;;4.73;100.00;100970.59;4952075;28;20023;-64
2023/04/25 01:32:47;;;;;;;13.05;4.80;;;;;;;4.71;100.00;100982.47;4951071;28;20114;-65
2023/04/25 01:35:12;;;;;;;10.77;5.00;;;;;;;4.70;100.00;100975.53;4963975;28;20027;-65
2023/04/25 01:37:42;;;;;;;11.00;5.43;;;;;;;4.70;100.00;100980.69;4951643;28;20081;-64
2023/04/25 01:40:09;;;;;;;13.05;5.25;;;;;;;4.71;100.00;100981.56;4952356;28;20476;-65
2023/04/25 01:42:37;;;;;;;11.02;5.38;;;;;;;4.73;100.00;100980.84;4951925;28;20031;-64
2023/04/25 01:45:03;;;;;;;11.43;5.40;;;;;;;4.76;100.00;100981.06;4951493;28;20035;-65
2023/04/25 01:47:29;;;;;;;11.53;5.20;;;;;;;4.78;100.00;100984.59;4978557;28;20093;-64
2023/04/25 01:49:55;;;;;;;16.80;5.70;;;;;;;4.79;100.00;100990.59;4970660;28;20252;-64
2023/04/25 01:52:20;;;;;;;15.90;6.30;;;;;;;4.80;100.00;100982.97;4967598;28;20041;-64
2023/04/25 01:54:46;;;;;;;11.50;5.13;;;;;;;4.80;100.00;100985.56;4950247;28;20042;-64
2023/04/25 01:57:12;;;;;;;13.17;4.97;;;;;;;4.80;100.00;100982.13;4980883;28;20059;-64
2023/04/25 01:59:37;;;;;;;13.77;4.68;;;;;;;4.79;100.00;100986.34;4988733;28;20030;-65
2023/04/25 02:02:03;;;;;;;12.27;5.00;;;;;;;4.81;100.00;100989.00;4988457;28;20033;-64
2023/04/25 02:04:32;;;;;;;12.33;4.77;;;;;;;4.82;100.00;100987.34;4985050;28;20105;-64
2023/04/25 02:06:57;;;;;;;15.25;4.93;;;;;;;4.83;100.00;100981.41;4958873;28;20439;-64
2023/04/25 02:09:23;;;;;;;14.50;4.50;;;;;;;4.82;100.00;100988.22;4982703;28;20110;-64
2023/04/25 02:11:49;;;;;;;14.77;5.40;;;;;;;4.81;100.00;100999.28;4978538;28;20049;-65
2023/04/25 02:14:14;;;;;;;8.65;4.55;;;;;;;4.78;100.00;101004.25;4982212;28;20026;-65
2023/04/25 02:16:40;;;;;;;17.70;5.40;;;;;;;4.70;100.00;101003.78;4950188;28;20526;-64
2023/04/25 02:19:05;;;;;;;9.33;5.40;;;;;;;4.63;100.00;101006.78;4981187;28;20042;-64
2023/04/25 02:21:31;;;;;;;15.27;5.40;;;;;;;4.56;100.00;101006.44;4979611;28;20037;-64
2023/04/25 02:23:56;;;;;;;12.63;5.17;;;;;;;4.50;100.00;101008.63;4969470;28;20086;-64
2023/04/25 02:26:28;;;;;;;12.65;5.80;;;;;;;4.47;100.00;101007.56;4982067;28;20040;-63
2023/04/25 02:28:53;;;;;;;;;;;;;;;4.46;100.00;101006.69;4977813;28;20029;-65
2023/04/25 02:31:18;;;;;;;17.13;5.53;;;;;;;4.47;100.00;101007.56;4960482;28;20005;-64
2023/04/25 02:33:44;;;;;;;13.02;6.05;;;;;;;4.46;100.00;101001.56;4951212;28;20053;-64
2023/04/25 02:36:09;;;;;;;17.87;5.50;;;;;;;4.44;100.00;101005.72;4950561;28;20031;-65
2023/04/25 02:38:35;;;;;;;13.33;5.83;;;;;;;4.42;100.00;101002.16;4950290;28;20121;-64
2023/04/25 02:41:00;;;;;;;16.50;4.97;;;;;;;4.42;100.00;101009.88;4952565;28;20066;-64
2023/04/25 02:43:25;;;;;;;11.63;5.20;;;;;;;4.41;100.00;101010.63;4961514;28;20118;-65
2023/04/25 02:45:51;;;;;;;12.50;4.67;;;;;;;4.39;100.00;101004.56;4964834;28;20061;-64
2023/04/25 02:48:16;;;;;;;18.37;6.50;;;;;;;4.33;100.00;101016.19;4961524;28;20523;-65
2023/04/25 02:50:42;;;;;;;14.13;5.03;;;;;;;4.32;100.00;101009.31;4952538;28;20391;-64
2023/04/25 02:53:07;;;;;;;9.50;4.67;;;;;;;4.29;100.00;101005.66;4950709;28;20578;-65
2023/04/25 02:55:32;;;;;;;13.90;4.70;;;;;;;4.23;100.00;101008.75;4950848;28;20031;-64
2023/04/25 02:57:57;;;;;;;13.20;4.67;;;;;;;4.19;100.00;101007.66;4950345;28;20098;-64
2023/04/25 03:00:23;;;;;;;13.90;4.97;;;;;;;4.16;100.00;101007.50;4951683;28;20034;-64
2023/04/25 03:02:48;;;;;;;15.80;5.23;;;;;;;4.11;100.00;101008.00;4950982;28;20023;-64
2023/04/25 03:05:14;;;;;;;12.17;4.87;;;;;;;4.05;100.00;101008.50;4965215;28;20035;-64
2023/04/25 03:07:39;;;;;;;8.20;4.07;;;;;;;4.01;100.00;101010.00;4981947;28;20069;-64
2023/04/25 03:10:06;;;;;;;10.93;5.00;;;;;;;3.94;100.00;101005.31;4987692;28;20026;-65
2023/04/25 03:12:32;;;;;;;8.47;4.70;;;;;;;3.92;100.00;101012.00;4958749;28;20567;-64
2023/04/25 03:14:57;;;;;;;9.90;4.67;;;;;;;3.89;100.00;101019.50;4949579;28;20019;-65
2023/04/25 03:17:22;;;;;;;14.30;4.80;;;;;;;3.85;100.00;101018.41;4949415;28;20114;-64
2023/04/25 03:19:48;;;;;;;11.47;5.57;;;;;;;3.83;100.00;101012.31;4949922;28;20058;-64
2023/04/25 03:22:13;;;;;;;12.37;5.23;;;;;;;3.76;100.00;101017.88;4950802;28;20035;-65
2023/04/25 03:24:38;;;;;;;9.40;5.00;;;;;;;3.68;100.00;101019.94;4957586;28;20057;-65
2023/04/25 03:27:04;;;;;;;8.27;4.47;;;;;;;3.63;100.00;101023.88;4975699;28;20120;-64
2023/04/25 03:29:29;;;;;;;12.00;5.20;;;;;;;3.56;100.00;101022.63;4950060;28;20107;-64
2023/04/25 03:31:54;;;;;;;12.87;4.87;;;;;;;3.53;100.00;101022.41;4950008;28;20035;-65
2023/04/25 03:34:21;;;;;;;11.13;5.47;;;;;;;3.52;100.00;101015.50;4949854;28;20042;-65
2023/04/25 03:36:47;;;;;;;13.37;5.40;;;;;;;3.51;100.00;101008.63;4950586;28;20031;-65
2023/04/25 03:39:12;;;;;;;16.77;5.93;;;;;;;3.52;100.00;101016.41;4949906;28;20034;-65
2023/04/25 03:41:37;;;;;;;13.23;5.30;;;;;;;3.54;100.00;101014.84;4961964;28;20480;-64
2023/04/25 03:44:03;;;;;;;17.03;6.93;;;;;;;3.56;100.00;101017.50;4950144;28;20095;-65
2023/04/25 03:46:28;;;;;;;13.60;5.47;;;;;;;3.58;100.00;101021.03;4956554;28;20348;-64
2023/04/25 03:48:53;;;;;;;11.93;5.50;;;;;;;3.60;100.00;101020.31;4956356;28;20435;-65
2023/04/25 03:51:18;;;;;;;11.03;5.17;;;;;;;3.60;100.00;101015.19;4949841;28;20676;-65
2023/04/25 03:53:44;;;;;;;12.67;6.27;;;;;;;3.62;100.00;101017.00;4950677;28;20242;-65
2023/04/25 03:56:09;;;;;;;11.90;6.53;;;;;;;3.64;100.00;101011.16;4961390;28;20432;-65
2023/04/25 03:58:34;;;;;;;14.53;5.33;;;;;;;3.65;100.00;101012.91;4950387;28;20106;-65
2023/04/25 04:01:02;;;;;;;14.00;5.73;;;;;;;3.68;100.00;101018.25;4949717;28;20047;-65
2023/04/25 04:03:27;;;;;;;14.10;5.60;;;;;;;3.69;100.00;101014.00;4950814;28;20541;-65
2023/04/25 04:05:52;;;;;;;15.20;5.63;;;;;;;3.72;100.00;101024.47;4961977;28;20142;-65
2023/04/25 04:08:18;;;;;;;16.37;6.17;;;;;;;3.74;100.00;101028.03;4987182;28;20379;-64
2023/04/25 04:10:43;;;;;;;13.43;5.57;;;;;;;3.77;100.00;101028.22;4961897;28;20520;-64
2023/04/25 04:13:08;;;;;;;13.60;5.80;;;;;;;3.81;100.00;101032.72;4949345;28;20077;-65
2023/04/25 04:15:34;;;;;;;12.17;5.13;;;;;;;3.86;100.00;101039.81;4960436;28;20137;-65
2023/04/25 04:18:02;;;;;;;13.07;6.00;;;;;;;3.90;100.00;101041.78;4947966;28;20038;-65
2023/04/25 04:20:29;;;;;;;12.13;5.20;;;;;;;3.91;100.00;101038.44;4951023;28;20085;-65
2023/04/25 04:22:55;;;;;;;20.50;5.70;;;;;;;3.93;100.00;101045.44;4963422;28;20043;-65
2023/04/25 04:25:20;;;;;;;12.13;4.97;;;;;;;3.96;100.00;101039.59;4960183;28;20386;-65
2023/04/25 04:27:45;;;;;;;15.07;5.60;;;;;;;3.99;100.00;101044.94;4988816;28;20030;-65
2023/04/25 04:30:12;;;;;;;12.27;6.17;;;;;;;4.01;100.00;101043.31;4952836;28;20113;-65
2023/04/25 04:32:38;;;;;;;13.73;5.07;;;;;;;4.03;100.00;101041.75;4950515;28;20495;-64
2023/04/25 04:35:04;;;;;;;16.27;5.80;;;;;;;4.06;100.00;101046.19;4962298;28;20026;-65
2023/04/25 04:37:29;;;;;;;14.37;5.63;;;;;;;4.10;100.00;101052.41;4967155;28;20388;-64
2023/04/25 04:39:55;;;;;;;20.27;7.57;;;;;;;4.13;100.00;101055.16;4964225;28;20030;-64
2023/04/25 04:42:21;;;;;;;10.80;4.73;;;;;;;4.15;100.00;101056.13;4966365;28;20031;-64
2023/04/25 04:44:46;;;;;;;15.43;5.13;;;;;;;4.18;100.00;101061.44;4963463;28;20026;-65
2023/04/25 04:47:13;;;;;;;15.07;4.80;;;;;;;4.21;100.00;101056.50;4990857;28;20088;-64
2023/04/25 04:49:39;;;;;;;14.53;5.07;;;;;;;4.25;100.00;101068.72;4989976;28;20097;-66
2023/04/25 04:52:04;;;;;;;15.80;4.83;;;;;;;4.27;100.00;101066.25;4989889;28;20066;-66
2023/04/25 04:54:30;;;;;;;17.67;5.23;;;;;;;4.28;100.00;101063.78;4990445;28;20410;-66
2023/04/25 04:56:55;;;;;;;11.98;4.50;;;;;;;4.30;100.00;101077.59;4989306;28;20486;-67
2023/04/25 04:59:21;;;;;;;11.53;5.10;;;;;;;4.31;100.00;101069.13;4989747;28;20022;-67
2023/04/25 05:01:46;;;;;;;14.20;5.30;;;;;;;4.32;100.00;101076.03;4989245;28;20023;-66
2023/04/25 05:04:12;;;;;;;12.80;4.97;;;;;;;4.33;100.00;101077.78;4990598;28;20097;-66
2023/04/25 05:06:37;;;;;;;13.30;4.68;;;;;;;4.36;100.00;101092.50;4958615;28;20166;-65
2023/04/25 05:09:02;;;;;;;14.45;4.78;;;;;;;4.38;100.00;101087.44;4983621;28;20023;-65
2023/04/25 05:11:28;;;;;;;13.93;4.73;;;;;;;4.39;100.00;101086.69;4989850;28;20467;-65
2023/04/25 05:13:53;;;;;;;13.32;4.95;;;;;;;4.42;100.00;101097.13;4977694;28;20539;-66
2023/04/25 05:16:19;;;;;;;13.50;4.50;;;;;;;4.46;100.00;101106.78;4988367;28;20126;-67
2023/04/25 05:18:46;;;;;;;13.80;5.35;;;;;;;4.50;100.00;101106.16;4989796;28;20026;-66
2023/04/25 05:21:11;;;;;;;12.68;4.85;;;;;;;4.56;100.00;101100.53;4989661;28;20046;-66
2023/04/25 05:23:36;;;;;;;19.45;5.13;;;;;;;4.61;100.00;101103.34;4989525;28;20057;-67
2023/04/25 05:26:02;;;;;;;13.77;4.75;;;;;;;4.64;100.00;101101.00;4989818;28;20022;-66
2023/04/25 05:28:27;;;;;;;12.23;4.20;;;;;;;4.67;100.00;101109.78;4955757;28;20523;-66
2023/04/25 05:30:52;;;;;;;11.88;4.50;;;;;;;4.72;100.00;101115.19;4958201;28;20050;-67
2023/04/25 05:33:18;;;;;;;14.65;4.55;;;;;;;4.77;100.00;101115.44;4963118;28;20058;-66
2023/04/25 05:35:44;;;;;;;11.13;4.60;;;;;;;4.79;100.00;101119.88;4967066;28;20468;-66
2023/04/25 05:38:09;;;;;;;12.65;4.00;;;;;;;4.83;100.00;101118.41;4966411;28;20022;-66
2023/04/25 05:40:35;;;;;;;15.25;4.32;;;;;;;4.88;100.00;101123.78;4967290;28;20035;-66
2023/04/25 05:43:00;;;;;;;9.77;4.55;;;;;;;4.93;100.00;101127.53;4974629;28;20030;-66
2023/04/25 05:45:25;;;;;;;14.27;4.20;;;;;;;4.97;100.00;101118.31;4958928;28;20110;-66
2023/04/25 05:47:51;;;;;;;10.82;4.30;;;;;;;5.00;100.00;101119.38;4967294;28;20041;-66
2023/04/25 05:50:16;;;;;;;11.73;4.38;;;;;;;5.05;100.00;101127.38;4968441;28;20027;-66
2023/04/25 05:52:41;;;;;;;11.80;4.57;;;;;;;5.13;100.00;101132.94;4969559;28;20038;-66
2023/04/25 05:55:07;;;;;;;10.45;4.28;;;;;;;5.19;100.00;101140.16;4967856;28;20034;-66
2023/04/25 05:57:32;;;;;;;12.77;4.75;;;;;;;5.25;100.00;101135.38;4959275;28;20464;-66
2023/04/25 05:59:57;;;;;;;14.07;4.40;;;;;;;5.34;100.00;101140.16;4957186;28;20086;-65
2023/04/25 06:02:23;;;;;;;9.93;3.97;;;;;;;5.41;100.00;101150.00;4957142;28;20024;-64
2023/04/25 06:04:50;;;;;;;8.90;3.38;;;;;;;5.46;100.00;101152.84;4969427;28;20455;-64
2023/04/25 06:07:15;;;;;;;9.93;4.95;;;;;;;5.48;100.00;101158.97;4961835;28;20046;-64
2023/04/25 06:09:40;;;;;;;9.80;3.33;;;;;;;5.50;100.00;101162.50;4954953;28;20024;-64
2023/04/25 06:12:06;;;;;;;13.75;5.38;;;;;;;5.53;100.00;101168.72;4972287;28;20026;-66
2023/04/25 06:14:35;;;;;;;12.70;4.28;;;;;;;5.54;100.00;101169.59;4955078;28;20035;-67
2023/04/25 06:17:06;;;;;;;10.20;3.33;;;;;;;5.57;100.00;101168.88;4953131;28;20078;-66
2023/04/25 06:19:32;;;;;;;15.88;4.57;;;;;;;5.59;100.00;101167.28;4959477;28;20031;-66
2023/04/25 06:21:57;;;;;;;10.63;3.03;;;;;;;5.60;100.00;101164.81;4949672;28;20031;-66
2023/04/25 06:24:23;;;;;;;11.75;3.63;;;;;;;5.61;100.00;101173.41;4955926;28;20015;-66
2023/04/25 06:26:48;;;;;;;6.88;3.40;;;;;;;5.63;100.00;101174.41;4983509;28;20030;-66
2023/04/25 06:29:13;;;;;;;9.13;3.13;;;;;;;5.62;100.00;101173.50;4967065;28;20030;-66
2023/04/25 06:31:39;;;;;;;6.05;2.38;;;;;;;5.70;100.00;101180.78;4977762;28;20072;-66
2023/04/25 06:34:04;;;;;;;8.38;2.63;;;;;;;5.76;100.00;101169.16;4983151;28;20053;-64
2023/04/25 06:36:30;;;;;;;6.75;3.50;;;;;;;5.96;100.00;101159.09;4978232;28;20038;-65
2023/04/25 06:38:55;;;;;;;10.90;3.45;;;;;;;6.23;100.00;101168.28;4981153;28;20635;-65
2023/04/25 06:41:20;;;;;;;8.00;2.50;;;;;;;6.55;100.00;101183.75;4977900;28;20044;-65
2023/04/25 06:43:46;;;;;;;8.80;2.63;;;;;;;6.85;100.00;101170.72;4980734;28;20026;-66
2023/04/25 06:46:11;;;;;;;7.22;3.10;;;;;;;7.17;100.00;101184.41;4978976;28;20018;-65
2023/04/25 06:48:37;;;;;;;7.78;2.22;;;;;;;7.48;100.00;101185.09;4980582;28;20383;-65
2023/04/25 06:51:02;;;;;;;5.53;2.60;;;;;;;7.76;100.00;101188.13;4979015;28;20022;-65
2023/04/25 06:53:27;;;;;;;9.82;2.60;;;;;;;8.01;100.00;101194.47;4979378;28;20101;-65
2023/04/25 06:55:53;;;;;;;7.25;2.38;;;;;;;8.25;100.00;101192.22;4977465;28;20225;-65
2023/04/25 06:58:18;;;;;;;8.10;2.55;;;;;;;8.46;100.00;101195.69;4978156;28;20538;-65
2023/04/25 07:00:43;;;;;;;6.00;2.53;;;;;;;8.68;100.00;101205.38;4979491;28;20033;-65
2023/04/25 07:03:09;;;;;;;8.27;2.45;;;;;;;8.87;100.00;101196.75;4977606;28;20333;-65
2023/04/25 07:05:35;;;;;;;6.55;1.95;;;;;;;9.05;100.00;101203.53;4962835;28;20023;-65
2023/04/25 07:08:00;;;;;;;8.60;1.77;;;;;;;9.24;100.00;101200.09;4948665;28;20140;-66
2023/04/25 07:10:25;;;;;;;7.07;2.15;;;;;;;9.52;100.00;101200.34;4949992;28;20074;-63
2023/04/25 07:12:51;;;;;;;9.82;1.77;;;;;;;9.77;98.82;101198.78;4953317;28;20110;-63
2023/04/25 07:15:16;;;;;;;5.63;2.03;;;;;;;10.00;95.17;101209.19;4978673;28;20025;-62
2023/04/25 07:17:42;;;;;;;5.82;1.38;;;;;;;10.20;92.92;101210.00;4987967;28;20014;-63
2023/04/25 07:20:09;;;;;;;6.63;2.08;;;;;;;10.50;90.86;101213.75;4988196;28;20107;-64
2023/04/25 07:22:34;;;;;;;5.75;1.52;;;;;;;10.67;83.64;101219.56;4975180;28;20038;-63
2023/04/25 07:24:59;;;;;;;8.07;2.00;;;;;;;10.96;87.83;101224.06;4986067;28;20489;-63
2023/04/25 07:27:25;;;;;;;8.05;2.20;;;;;;;11.22;85.41;101218.06;4968625;28;20546;-63
2023/04/25 07:29:50;;;;;;;6.18;1.30;;;;;;;11.41;79.15;101215.28;4950220;28;20027;-66
2023/04/25 07:32:15;;;;;;;7.60;1.98;;;;;;;11.51;73.46;101226.84;4966845;28;20296;-63
2023/04/25 07:34:41;;;;;;;5.15;1.73;;;;;;;11.72;78.29;101224.94;4966955;28;20039;-63
2023/04/25 07:37:06;;;;;;;5.22;1.70;;;;;;;11.79;76.40;101228.63;4958191;28;20023;-65
2023/04/25 07:39:32;;;;;;;6.47;1.65;;;;;;;11.76;74.25;101232.00;4964911;28;20510;-66
2023/04/25 07:41:58;;;;;;;5.72;1.40;;;;;;;11.80;70.97;101243.38;4948176;28;20458;-65
2023/04/25 07:44:24;;;;;;;3.72;1.40;;;;;;;12.05;75.19;101244.19;4960758;28;20094;-62
2023/04/25 07:46:49;;;;;;;5.45;1.30;;;;;;;12.31;72.16;101251.94;4948060;28;20035;-65
2023/04/25 07:49:15;;;;;;;6.00;1.27;;;;;;;12.36;69.93;101252.97;4948511;28;20027;-65
2023/04/25 07:51:40;;;;;;;5.70;1.42;;;;;;;12.22;69.30;101249.94;4948725;28;20023;-64
2023/04/25 07:54:06;;;;;;;3.35;0.93;;;;;;;12.48;68.85;101255.94;4976915;28;20069;-65
2023/04/25 07:56:32;;;;;;;5.22;1.58;;;;;;;12.71;68.59;101258.38;4989293;28;20041;-64
2023/04/25 07:58:57;;;;;;;4.32;1.10;;;;;;;12.95;65.63;101254.72;4981679;28;20030;-65
2023/04/25 08:01:22;;;;;;;7.05;1.70;;;;;;;13.16;65.53;101260.50;4960600;28;20106;-64
2023/04/25 08:03:48;;;;;;;8.00;1.33;;;;;;;13.25;65.07;101257.28;4962464;28;20099;-63
2023/04/25 08:06:13;;;;;;;4.57;1.40;;;;;;;13.01;62.56;101251.41;4958194;28;20333;-63
2023/04/25 08:08:38;;;;;;;5.78;1.98;;;;;;;12.71;65.05;101262.69;4965172;28;20544;-65
2023/04/25 08:11:04;;;;;;;7.55;1.70;;;;;;;12.12;66.14;101267.81;4958344;28;20033;-65
2023/04/25 08:13:29;;;;;;;5.50;1.90;;;;;;;11.70;67.61;101284.59;4956844;28;20042;-66
2023/04/25 08:15:54;;;;;;;6.80;1.67;;;;;;;11.36;68.89;101278.22;4971428;28;20039;-66
2023/04/25 08:18:20;;;;;;;5.35;1.80;;;;;;;11.29;72.04;101278.03;4959123;28;20058;-63
2023/04/25 08:20:45;;;;;;;18.00;2.47;;;;;;;11.19;72.62;101281.06;4970672;28;20189;-66
2023/04/25 08:23:10;;;;;;;11.35;1.95;;;;;;;11.04;73.89;101284.00;4949125;28;20074;-64
2023/04/25 08:25:36;;;;;;;6.70;1.70;;;;;;;10.94;73.99;101287.94;4955425;28;20115;-64
2023/04/25 08:28:02;;;;;;;6.25;1.80;;;;;;;10.79;74.65;101291.72;4966528;28;20023;-63
2023/04/25 08:30:28;;;;;;;7.28;1.67;;;;;;;10.70;75.22;101296.59;4972256;28;20515;-64
2023/04/25 08:32:53;;;;;;;8.90;1.73;;;;;;;10.69;74.83;101294.78;4971884;28;20037;-63
2023/04/25 08:35:20;;;;;;;8.10;2.33;;;;;;;10.64;75.35;101292.03;4967518;28;20119;-63
2023/04/25 08:37:45;;;;;;;9.65;2.10;;;;;;;10.62;78.11;101300.56;4965323;28;20138;-64
2023/04/25 08:40:14;;;;;;;10.45;2.63;;;;;;;10.59;79.69;101310.81;4975492;28;20034;-64
2023/04/25 08:42:41;;;;;;;7.47;1.83;;;;;;;10.46;76.90;101312.88;4975760;28;20248;-64
2023/04/25 08:45:08;;;;;;;5.10;1.80;;;;;;;10.40;77.75;101315.22;4961762;28;20294;-63
2023/04/25 08:47:34;;;;;;;7.95;1.98;;;;;;;10.39;78.15;101310.88;4955163;28;20023;-64
2023/04/25 08:50:03;;;;;;;7.50;1.95;;;;;;;10.45;78.47;101311.13;4956337;28;20031;-63
2023/04/25 08:52:32;;;;;;;6.43;1.50;;;;;;;10.47;77.33;101308.59;4970741;28;20018;-63
2023/04/25 08:54:58;;;;;;;6.70;2.15;;;;;;;10.64;79.65;101317.97;4957915;28;20023;-63
2023/04/25 08:57:24;;;;;;;6.57;1.63;;;;;;;10.86;76.54;101320.50;4965972;28;20023;-64
2023/04/25 08:59:51;;;;;;;4.85;1.60;;;;;;;10.96;76.31;101330.38;4966088;28;20059;-63
2023/04/25 09:02:19;;;;;;;8.20;2.00;;;;;;;11.00;75.70;101337.47;4964694;28;20048;-63
2023/04/25 09:04:45;;;;;;;4.88;1.40;;;;;;;11.09;73.95;101341.22;4968465;28;20037;-64
2023/04/25 09:07:10;;;;;;;6.80;2.15;;;;;;;11.11;75.79;101349.97;4961786;28;20031;-64
2023/04/25 09:09:36;;;;;;;5.38;1.50;;;;;;;11.08;78.04;101357.63;4970084;28;20018;-63
2023/04/25 09:12:01;;;;;;;5.70;1.75;;;;;;;11.09;78.02;101359.38;4976076;28;20038;-64
2023/04/25 09:14:27;;;;;;;7.90;2.13;;;;;;;10.99;77.53;101353.84;4965993;28;20033;-64
2023/04/25 09:16:55;;;;;;;10.65;1.90;;;;;;;10.80;75.90;101366.09;4959676;28;20053;-64
2023/04/25 09:19:22;;;;;;;5.70;1.33;;;;;;;10.63;73.87;101369.72;4965166;28;20429;-64
2023/04/25 09:21:53;;;;;;;4.65;1.13;;;;;;;10.73;75.86;101368.38;4965832;28;20034;-64
2023/04/25 09:24:39;;;;;;;4.93;1.70;;;;;;;10.81;74.54;101372.19;4977247;28;20422;-64
2023/04/25 09:27:06;;;;;;;7.18;1.50;;;;;;;10.98;75.22;101364.16;4963153;28;20473;-64
2023/04/25 09:29:34;;;;;;;5.43;1.75;;;;;;;11.11;72.75;101375.88;4981195;28;20018;-64
2023/04/25 09:32:15;;;;;;;7.57;1.23;;;;;;;11.15;68.60;101377.78;4961420;28;20041;-63
2023/04/25 09:34:48;;;;;;;6.18;1.77;;;;;;;11.28;69.01;101374.81;4964201;28;20029;-64
2023/04/25 09:37:27;;;;;;;4.50;1.65;;;;;;;11.44;71.14;101375.38;4954497;28;20484;-64
2023/04/25 09:39:55;;;;;;;6.25;1.20;;;;;;;11.41;68.46;101385.66;4952539;28;20476;-64
2023/04/25 09:42:25;;;;;;;7.90;1.83;;;;;;;11.37;68.42;101379.47;4952326;28;20023;-64
2023/04/25 09:44:55;;;;;;;4.28;1.50;;;;;;;11.36;69.25;101384.59;4951622;28;20038;-64
2023/04/25 09:47:23;;;;;;;7.65;1.25;;;;;;;11.46;71.81;101386.72;4954491;28;20042;-64
2023/04/25 09:49:49;;;;;;;6.28;1.50;;;;;;;11.41;70.66;101390.84;4951810;28;20443;-64
2023/04/25 09:52:20;;;;;;;5.93;1.48;;;;;;;11.20;70.19;101406.50;4955663;28;20050;-63
2023/04/25 09:54:46;;;;;;;4.88;1.25;;;;;;;10.90;71.02;101395.00;4955468;28;20045;-64
2023/04/25 09:57:14;;;;;;;6.57;1.55;;;;;;;10.67;72.35;101394.94;4967151;28;20022;-64
2023/04/25 09:59:44;;;;;;;5.13;1.40;;;;;;;10.41;71.53;101394.72;4958158;28;20464;-64
2023/04/25 10:02:10;;;;;;;5.82;1.67;;;;;;;10.23;73.81;101395.72;4967008;28;20026;-63
2023/04/25 10:04:37;;;;;;;8.50;1.60;;;;;;;10.14;74.34;101398.81;4962056;28;20117;-64
2023/04/25 10:07:05;;;;;;;5.30;1.52;;;;;;;10.29;77.80;101403.75;4951492;28;20198;-64
2023/04/25 10:09:35;;;;;;;5.70;1.40;;;;;;;10.51;71.84;101414.16;4955693;28;20468;-66
2023/04/25 10:12:01;;;;;;;6.75;1.10;;;;;;;10.79;72.07;101399.75;4950262;28;20393;-64
2023/04/25 10:14:27;;;;;;;4.30;1.08;;;;;;;11.09;68.29;101398.28;4960537;28;20034;-64
2023/04/25 10:16:56;;;;;;;4.10;1.00;;;;;;;11.38;65.75;101396.81;4950862;28;20411;-64
2023/04/25 10:19:22;;;;;;;3.20;0.77;;;;;;;11.69;66.40;101393.59;4952155;28;20027;-64
2023/04/25 10:21:54;;;;;;;5.07;1.08;;;;;;;11.91;66.19;101397.81;4952936;28;20034;-63
2023/04/25 10:24:20;;;;;;;6.25;1.10;;;;;;;12.09;64.43;101396.69;4958149;28;20030;-64
2023/04/25 10:26:46;;;;;;;2.08;0.93;;;;;;;12.35;67.81;101394.16;4974531;28;20058;-64
2023/04/25 10:29:12;;;;;;;6.00;1.52;;;;;;;12.50;65.26;101393.78;4957237;28;20344;-64
2023/04/25 10:31:46;;;;;;;3.50;1.27;;;;;;;12.65;63.56;101393.38;4980174;28;20030;-66
2023/04/25 10:34:11;;;;;;;3.05;1.02;;;;;;;12.79;62.78;101395.56;4962288;28;20429;-64
2023/04/25 10:36:37;;;;;;;4.28;0.93;;;;;;;12.96;63.31;101398.69;4966475;28;20030;-63
2023/04/25 10:39:07;;;;;;;2.28;0.93;;;;;;;13.06;60.95;101392.91;4977130;28;20065;-63
2023/04/25 10:41:45;;;;;;;3.80;0.90;;;;;;;12.93;61.13;101403.78;4975724;28;20480;-66
2023/04/25 10:44:11;;;;;;;2.38;0.90;;;;;;;12.69;59.95;101403.06;4977149;28;20031;-64
2023/04/25 10:46:37;;;;;;;3.58;0.85;;;;;;;12.42;60.75;101409.13;4971028;28;20546;-63
2023/04/25 10:49:03;;;;;;;5.70;1.75;;;;;;;12.27;62.43;101400.81;4957263;28;20054;-62
2023/04/25 10:51:32;;;;;;;3.58;1.13;;;;;;;12.25;62.63;101408.53;4968206;28;20457;-64
2023/04/25 10:54:03;;;;;;;3.20;1.00;;;;;;;12.13;62.07;101403.81;4962093;28;20045;-63
2023/04/25 10:56:33;;;;;;;5.13;1.23;;;;;;;11.98;60.99;101399.81;4964248;28;20031;-63
2023/04/25 10:59:10;;;;;;;5.68;1.52;;;;;;;11.83;63.25;101409.66;4958637;28;20038;-63
2023/04/25 11:01:41;;;;;;;3.97;1.40;;;;;;;11.63;63.51;101410.72;4961570;28;20700;-63
2023/04/25 11:04:20;;;;;;;4.80;1.15;;;;;;;11.40;64.81;101410.72;4961069;28;20045;-64
2023/04/25 11:07:07;;;;;;;3.88;0.80;;;;;;;11.24;65.63;101413.56;4962868;28;20044;-63
2023/04/25 11:09:33;;;;;;;6.05;1.52;;;;;;;11.09;66.77;101422.53;4986574;28;20036;-63
2023/04/25 11:12:00;;;;;;;3.17;1.15;;;;;;;10.94;68.69;101415.00;4987419;28;20030;-63
2023/04/25 11:14:26;;;;;;;7.68;1.67;;;;;;;10.80;73.59;101419.66;4985291;28;20567;-63
2023/04/25 11:16:56;;;;;;;5.47;1.10;;;;;;;10.70;71.18;101428.78;4955080;28;20078;-63